Time;durP1;ratioP1;P1;durP2;ratioP2;P2;SDS_P1;SDS_P2;PMS_P1;PMS_P2;Temp;Humidity;BMP_temperature;BMP_pressure;BME280_temperature;BME280_humidity;BME280_pressure;Samples;Min_cycle;Max_cycle;Signal;HPM_P1;HPM_P2
2021/11/17 02:26:02;;;;;;;22.2;25.5;;;;;;;1.9;82.1;99330;;;;
2021/11/17 02:37:02;;;;;;;22.2;25.5;;;;;;;1.8;81.7;99310;;;;
2021/11/17 02:47:02;;;;;;;22.2;25.5;;;;;;;1.7;81.2;99300;;;;
2021/11/17 02:58:02;;;;;;;21.2;24.4;;;;;;;1.5;81.8;99300;;;;
2021/11/17 03:08:02;;;;;;;21.2;24.4;;;;;;;1.4;82.5;99300;;;;
2021/11/17 03:18:02;;;;;;;21.2;24.4;;;;;;;1.4;82;99310;;;;
2021/11/17 03:29:02;;;;;;;17.7;20.9;;;;;;;1.1;81.9;99300;;;;
2021/11/17 03:40:02;;;;;;;17.7;20.9;;;;;;;1.2;81.5;99300;;;;
2021/11/17 03:50:02;;;;;;;17.7;20.9;;;;;;;1.3;81.4;99290;;;;
2021/11/17 04:00:02;;;;;;;16.1;20.2;;;;;;;1;82;99280;;;;
2021/11/17 04:11:02;;;;;;;16.1;20.2;;;;;;;1.2;81.3;99280;;;;
2021/11/17 04:21:02;;;;;;;16.1;20.2;;;;;;;1;81.6;99280;;;;
2021/11/17 04:31:02;;;;;;;17.9;22.6;;;;;;;1;80.9;99280;;;;
2021/11/17 04:41:02;;;;;;;17.9;22.6;;;;;;;1;81.2;99280;;;;
2021/11/17 04:52:02;;;;;;;17.9;22.6;;;;;;;0.9;81.3;99280;;;;
2021/11/17 05:02:02;;;;;;;17.4;20.1;;;;;;;0.7;81.9;99260;;;;
2021/11/17 05:12:02;;;;;;;17.4;20.1;;;;;;;0.6;82.1;99260;;;;
2021/11/17 05:23:02;;;;;;;17.4;20.1;;;;;;;0.4;81.8;99250;;;;
2021/11/17 05:33:02;;;;;;;17.2;19.9;;;;;;;0.3;82.1;99260;;;;
2021/11/17 05:44:02;;;;;;;17.2;19.9;;;;;;;0.3;82.3;99280;;;;
2021/11/17 05:54:02;;;;;;;16.6;20.8;;;;;;;0.3;82.2;99280;;;;
2021/11/17 06:04:04;;;;;;;16.6;20.8;;;;;;;0.2;81.9;99290;;;;
2021/11/17 06:15:03;;;;;;;16.6;20.8;;;;;;;0.3;81.8;99300;;;;
2021/11/17 06:25:02;;;;;;;14.8;17.6;;;;;;;0.4;81.7;99300;;;;
2021/11/17 06:35:02;;;;;;;14.8;17.6;;;;;;;0.4;81.6;99310;;;;
2021/11/17 06:46:02;;;;;;;14.8;17.6;;;;;;;0.4;80.7;99300;;;;
2021/11/17 06:56:02;;;;;;;16.3;19.9;;;;;;;0.4;80.2;99300;;;;
2021/11/17 07:06:02;;;;;;;16.3;19.9;;;;;;;0.7;80.3;99300;;;;
2021/11/17 07:16:03;;;;;;;16.3;19.9;;;;;;;1.2;80.3;99300;;;;
2021/11/17 07:27:02;;;;;;;22;25.4;;;;;;;1.3;80;99300;;;;
2021/11/17 07:37:02;;;;;;;22;25.4;;;;;;;1.4;80.1;99310;;;;
2021/11/17 07:47:02;;;;;;;22;25.4;;;;;;;1.4;79.5;99310;;;;
2021/11/17 07:58:02;;;;;;;25.7;29.3;;;;;;;1.7;79.2;99310;;;;
2021/11/17 08:08:02;;;;;;;25.7;29.3;;;;;;;2.2;79.4;99300;;;;
2021/11/17 08:18:02;;;;;;;25.7;29.3;;;;;;;2.1;78.9;99300;;;;
2021/11/17 08:29:02;;;;;;;24.2;27;;;;;;;2.5;78.1;99300;;;;
2021/11/17 08:40:02;;;;;;;24.2;27;;;;;;;2.7;78.6;99300;;;;
2021/11/17 08:50:02;;;;;;;24.2;27;;;;;;;3.3;77.2;99300;;;;
2021/11/17 09:01:02;;;;;;;26.3;31.9;;;;;;;3.4;77.2;99310;;;;
2021/11/17 09:12:02;;;;;;;26.3;31.9;;;;;;;4.1;76.3;99310;;;;
2021/11/17 09:29:55;;;;;;;30;34.5;;;;;;;4.2;76.2;99290;;;;
2021/11/17 09:39:56;;;;;;;30;34.5;;;;;;;4.5;76;99290;;;;
2021/11/17 10:05:01;;;;;;;32.9;42.7;;;;;;;5.2;76.1;99280;;;;
2021/11/17 10:15:03;;;;;;;32.9;42.7;;;;;;;5.5;75.7;99260;;;;
2021/11/17 10:26:01;;;;;;;32.9;42.7;;;;;;;6.4;75.2;99240;;;;
2021/11/17 10:37:01;;;;;;;33.6;38.9;;;;;;;7.3;73.3;99240;;;;
2021/11/17 10:47:01;;;;;;;33.6;38.9;;;;;;;7.3;73.6;99240;;;;
2021/11/17 10:58:01;;;;;;;33.6;38.9;;;;;;;7.9;72.3;99240;;;;
2021/11/17 11:08:01;;;;;;;28.9;35.2;;;;;;;8.2;71.3;99230;;;;
2021/11/17 11:18:01;;;;;;;28.9;35.2;;;;;;;8.5;70.2;99220;;;;
2021/11/17 11:29:01;;;;;;;28.9;35.2;;;;;;;8.8;69.6;99200;;;;
2021/11/17 11:40:01;;;;;;;24.4;32.3;;;;;;;8.9;69.1;99190;;;;
2021/11/17 11:50:01;;;;;;;24.4;32.3;;;;;;;9.2;68;99190;;;;
2021/11/17 12:00:01;;;;;;;24.4;32.3;;;;;;;9.4;67.8;99180;;;;
2021/11/17 12:11:01;;;;;;;24.4;29.6;;;;;;;9.4;66.4;99190;;;;
2021/11/17 12:21:01;;;;;;;24.4;29.6;;;;;;;9.5;66.1;99200;;;;
2021/11/17 12:31:01;;;;;;;24.4;29.6;;;;;;;9.5;66.1;99190;;;;
2021/11/17 12:42:01;;;;;;;22.5;25.6;;;;;;;9.6;66.1;99190;;;;
2021/11/17 12:52:01;;;;;;;22.5;25.6;;;;;;;9.5;66.2;99190;;;;
2021/11/17 13:02:02;;;;;;;22.5;25.6;;;;;;;9.3;67;99190;;;;
2021/11/17 13:15:58;;;;;;;22.1;27.1;;;;;;;9.2;66.6;99190;;;;
2021/11/17 13:26:00;;;;;;;22.1;27.1;;;;;;;9;67.4;99180;;;;
2021/11/17 13:35:58;;;;;;;20.7;25.1;;;;;;;8.8;68.1;99180;;;;
2021/11/17 13:45:58;;;;;;;20.7;25.1;;;;;;;8.9;67.3;99180;;;;
2021/11/17 13:56:58;;;;;;;20.7;25.1;;;;;;;8.7;67.4;99190;;;;
2021/11/17 14:06:58;;;;;;;26.7;32.7;;;;;;;8.6;67.5;99190;;;;
2021/11/17 14:16:58;;;;;;;26.7;32.7;;;;;;;8.5;67.8;99190;;;;
2021/11/17 14:26:58;;;;;;;26.7;32.7;;;;;;;8.4;69.1;99180;;;;
2021/11/17 14:38:00;;;;;;;25.8;30.2;;;;;;;8.3;69.5;99170;;;;
2021/11/17 14:48:58;;;;;;;25.8;30.2;;;;;;;7.9;71.4;99160;;;;
2021/11/17 14:58:58;;;;;;;25.8;30.2;;;;;;;8;70.3;99160;;;;
2021/11/17 15:08:58;;;;;;;31.8;38.9;;;;;;;7.9;70.4;99160;;;;
2021/11/17 15:18:58;;;;;;;31.8;38.9;;;;;;;7.8;70.4;99160;;;;
2021/11/17 15:28:59;;;;;;;31.8;38.9;;;;;;;7.7;71;99160;;;;
2021/11/17 15:38:58;;;;;;;36;40.7;;;;;;;7.8;69.9;99160;;;;
2021/11/17 15:49:58;;;;;;;36;40.7;;;;;;;7.7;71.1;99170;;;;
2021/11/17 15:59:58;;;;;;;36;40.7;;;;;;;7.7;71.2;99160;;;;
2021/11/17 16:09:58;;;;;;;32.2;36.8;;;;;;;7.6;71.7;99160;;;;
2021/11/17 16:19:58;;;;;;;32.2;36.8;;;;;;;7.5;72.3;99160;;;;
2021/11/17 16:30:58;;;;;;;32.2;36.8;;;;;;;7.5;72.6;99160;;;;
2021/11/17 16:40:58;;;;;;;41.9;47.8;;;;;;;7.5;72.3;99160;;;;
2021/11/17 16:51:58;;;;;;;41.9;47.8;;;;;;;7.5;72.3;99170;;;;
2021/11/17 17:01:58;;;;;;;41.9;47.8;;;;;;;7.5;72.1;99180;;;;
2021/11/17 17:12:58;;;;;;;38.3;46.2;;;;;;;7.5;72.6;99180;;;;
2021/11/17 17:22:58;;;;;;;38.3;46.2;;;;;;;7.3;73.4;99190;;;;
2021/11/17 17:34:00;;;;;;;46.8;53.5;;;;;;;7.4;73.4;99190;;;;
2021/11/17 17:44:58;;;;;;;46.8;53.5;;;;;;;7.3;73.9;99190;;;;
2021/11/17 17:55:58;;;;;;;46.8;53.5;;;;;;;7.3;73.6;99200;;;;
2021/11/17 18:16:16;;;;;;;60.1;72.6;;;;;;;7.3;72.8;99200;;;;
2021/11/17 18:26:16;;;;;;;60.1;72.6;;;;;;;7.4;71.4;99200;;;;
2021/11/17 18:37:15;;;;;;;43.1;52.1;;;;;;;7.4;70.8;99210;;;;
2021/11/17 18:47:15;;;;;;;43.1;52.1;;;;;;;7.4;70.7;99220;;;;
2021/11/17 18:57:16;;;;;;;43.1;52.1;;;;;;;7.3;71.8;99230;;;;
2021/11/17 19:08:15;;;;;;;39.3;44.5;;;;;;;7.2;72.4;99240;;;;
2021/11/17 19:19:15;;;;;;;39.3;44.5;;;;;;;7.2;73;99250;;;;
2021/11/17 19:29:16;;;;;;;39.3;44.5;;;;;;;7.2;73.2;99250;;;;
2021/11/17 19:40:16;;;;;;;47.7;60.4;;;;;;;7;74.2;99250;;;;
2021/11/17 19:50:16;;;;;;;47.7;60.4;;;;;;;6.9;74.7;99260;;;;
2021/11/17 20:00:16;;;;;;;47.7;60.4;;;;;;;6.8;75.4;99270;;;;
2021/11/17 20:11:17;;;;;;;55.1;64.6;;;;;;;6.7;75.9;99280;;;;
2021/11/17 20:21:16;;;;;;;55.1;64.6;;;;;;;6.6;76.3;99270;;;;
2021/11/17 20:32:16;;;;;;;60.2;70.5;;;;;;;6.5;76.4;99270;;;;
2021/11/17 20:42:16;;;;;;;60.2;70.5;;;;;;;6.5;76.8;99270;;;;
2021/11/17 20:52:16;;;;;;;60.2;70.5;;;;;;;6.3;77.1;99280;;;;
2021/11/17 21:21:56;;;;;;;37.6;46.3;;;;;;;6.4;76.6;99300;;;;
2021/11/17 21:31:56;;;;;;;37.6;46.3;;;;;;;6.4;75.6;99300;;;;
2021/11/17 21:41:56;;;;;;;37.6;46.3;;;;;;;6.4;75.4;99310;;;;
2021/11/17 21:51:56;;;;;;;30.8;35;;;;;;;6.4;74.9;99320;;;;
2021/11/17 22:01:56;;;;;;;30.8;35;;;;;;;6.3;74.4;99320;;;;
2021/11/17 22:11:56;;;;;;;30.8;35;;;;;;;6.4;74.1;99330;;;;
2021/11/17 22:21:56;;;;;;;28.6;36.4;;;;;;;6.3;73.2;99330;;;;
2021/11/17 22:31:56;;;;;;;28.6;36.4;;;;;;;6.3;72.7;99330;;;;
2021/11/17 22:41:56;;;;;;;28.6;36.4;;;;;;;6.4;72.6;99340;;;;
2021/11/17 22:51:56;;;;;;;23;33.3;;;;;;;6.4;72.6;99350;;;;
2021/11/17 23:01:56;;;;;;;23;33.3;;;;;;;6.3;72.9;99330;;;;
2021/11/17 23:11:56;;;;;;;23;33.3;;;;;;;6.3;73.2;99330;;;;
2021/11/17 23:22:56;;;;;;;18;22.6;;;;;;;6.3;73.6;99340;;;;
2021/11/17 23:33:01;;;;;;;18;22.6;;;;;;;6.2;74.2;99350;;;;
2021/11/17 23:43:56;;;;;;;18;22.6;;;;;;;6.3;74.5;99350;;;;
2021/11/17 23:53:56;;;;;;;20.1;26.1;;;;;;;6.3;74.8;99350;;;;
